Time;durP1;ratioP1;P1;durP2;ratioP2;P2;SDS_P1;SDS_P2;PMS_P1;PMS_P2;Temp;Humidity;BMP_temperature;BMP_pressure;BME280_temperature;BME280_humidity;BME280_pressure;Samples;Min_cycle;Max_cycle;Signal;HPM_P1;HPM_P2
2022/03/05 00:01:28;;;;;;;11.95;3.58;;;;;;;-2.50;100.00;102385.69;4956108;29;20114;-80
2022/03/05 00:03:54;;;;;;;7.35;3.20;;;;;;;-2.47;100.00;102398.50;4920206;29;20118;-78
2022/03/05 00:06:19;;;;;;;10.02;3.17;;;;;;;-2.51;100.00;102396.00;4952666;28;20110;-78
2022/03/05 00:08:46;;;;;;;10.90;3.45;;;;;;;-2.46;100.00;102391.66;4937274;28;20062;-79
2022/03/05 00:11:11;;;;;;;11.48;4.00;;;;;;;-2.42;100.00;102393.31;4953980;28;20035;-78
2022/03/05 00:13:37;;;;;;;9.63;4.00;;;;;;;-2.49;100.00;102394.25;4971449;28;20046;-78
2022/03/05 00:16:04;;;;;;;6.65;3.30;;;;;;;-2.59;100.00;102396.94;4972498;28;20070;-78
2022/03/05 00:18:30;;;;;;;6.90;3.38;;;;;;;-2.60;100.00;102397.84;4953029;28;20142;-77
2022/03/05 00:20:56;;;;;;;12.32;4.47;;;;;;;-2.62;100.00;102396.13;4952864;28;20082;-77
2022/03/05 00:23:22;;;;;;;10.55;3.75;;;;;;;-2.66;100.00;102397.91;4955642;28;20442;-77
2022/03/05 00:25:48;;;;;;;9.32;3.90;;;;;;;-2.72;100.00;102392.84;4938262;29;20073;-78
2022/03/05 00:28:15;;;;;;;9.63;4.05;;;;;;;-2.65;100.00;102388.50;4954634;29;20063;-78
2022/03/05 00:30:41;;;;;;;11.93;4.05;;;;;;;-2.69;100.00;102395.41;4938179;29;20046;-78
2022/03/05 00:33:07;;;;;;;11.57;3.92;;;;;;;-2.71;100.00;102394.56;4922295;29;20106;-78
2022/03/05 00:35:33;;;;;;;11.35;4.32;;;;;;;-2.77;100.00;102389.50;4950193;28;20043;-77
2022/03/05 00:38:00;;;;;;;8.68;3.80;;;;;;;-2.77;100.00;102395.50;4930066;29;20188;-77
2022/03/05 00:40:25;;;;;;;12.52;4.45;;;;;;;-2.91;100.00;102369.13;4969018;28;20525;-77
2022/03/05 00:42:51;;;;;;;14.50;4.78;;;;;;;-2.83;100.00;102389.56;4918906;29;20039;-77
2022/03/05 00:45:17;;;;;;;12.23;4.95;;;;;;;-2.81;100.00;102390.41;4967728;28;20058;-76
2022/03/05 00:47:42;;;;;;;7.72;4.10;;;;;;;-2.75;100.00;102392.88;4936053;29;20106;-78
2022/03/05 00:50:09;;;;;;;8.98;4.18;;;;;;;-2.78;100.00;102398.91;4966527;28;20043;-77
2022/03/05 00:52:36;;;;;;;8.45;4.20;;;;;;;-2.89;100.00;102393.06;4968871;28;20063;-77
2022/03/05 00:55:02;;;;;;;10.38;3.75;;;;;;;-2.94;100.00;102397.41;4936395;29;20046;-78
2022/03/05 00:57:27;;;;;;;7.65;3.33;;;;;;;-2.96;100.00;102400.03;4968377;28;20038;-77
2022/03/05 00:59:53;;;;;;;10.63;3.88;;;;;;;-3.02;100.00;102394.94;4939935;29;20035;-78
2022/03/05 01:02:19;;;;;;;12.02;3.95;;;;;;;-3.03;100.00;102393.25;4966729;28;20541;-77
2022/03/05 01:04:44;;;;;;;9.63;3.38;;;;;;;-3.00;100.00;102382.94;4946299;29;20035;-77
2022/03/05 01:07:10;;;;;;;10.38;3.53;;;;;;;-2.97;100.00;102395.75;4941764;29;20039;-78
2022/03/05 01:09:35;;;;;;;11.93;3.35;;;;;;;-2.99;100.00;102392.34;4952479;29;20039;-77
2022/03/05 01:12:02;;;;;;;10.15;3.45;;;;;;;-2.95;100.00;102390.59;4944366;29;20123;-77
2022/03/05 01:14:28;;;;;;;6.10;3.10;;;;;;;-2.85;100.00;102384.47;4968165;28;20039;-76
2022/03/05 01:16:53;;;;;;;9.20;3.40;;;;;;;-2.77;100.00;102380.09;4951143;29;20027;-77
2022/03/05 01:19:19;;;;;;;8.77;3.15;;;;;;;-2.89;100.00;102374.25;4952775;28;20043;-78
2022/03/05 01:21:44;;;;;;;11.93;3.45;;;;;;;-2.92;100.00;102372.56;4953473;28;20413;-77
2022/03/05 01:24:10;;;;;;;9.32;2.88;;;;;;;-3.01;100.00;102378.69;4956388;28;20054;-77
2022/03/05 01:26:35;;;;;;;10.95;3.13;;;;;;;-3.08;100.00;102391.63;4958515;28;20041;-76
2022/03/05 01:29:01;;;;;;;8.75;3.25;;;;;;;-3.19;100.00;102381.47;4974302;28;20130;-77
2022/03/05 01:31:27;;;;;;;9.48;3.05;;;;;;;-3.20;100.00;102390.00;4961933;28;20063;-76
2022/03/05 01:33:52;;;;;;;9.07;2.88;;;;;;;-3.20;100.00;102392.59;4949205;29;20106;-77
2022/03/05 01:36:18;;;;;;;8.38;2.90;;;;;;;-3.25;100.00;102389.25;4969756;28;20042;-77
2022/03/05 01:38:44;;;;;;;8.70;3.08;;;;;;;-3.30;100.00;102385.88;4954985;28;20035;-77
2022/03/05 01:41:10;;;;;;;7.65;2.95;;;;;;;-3.35;100.00;102380.81;4929195;29;20095;-78
2022/03/05 01:43:35;;;;;;;4.97;2.70;;;;;;;-3.33;100.00;102384.19;4935367;29;20047;-77
2022/03/05 01:46:01;;;;;;;9.88;3.03;;;;;;;-3.34;100.00;102390.19;4935501;29;20448;-78
2022/03/05 01:48:27;;;;;;;6.97;2.85;;;;;;;-3.45;100.00;102374.91;4947807;29;20081;-78
2022/03/05 01:50:52;;;;;;;7.43;3.03;;;;;;;-3.44;100.00;102381.75;4953264;28;20023;-78
2022/03/05 01:53:18;;;;;;;6.38;2.78;;;;;;;-3.48;100.00;102379.22;4963808;28;20413;-77
2022/03/05 01:55:44;;;;;;;13.43;2.95;;;;;;;-3.53;100.00;102376.69;4957592;28;20433;-77
2022/03/05 01:58:09;;;;;;;8.73;2.83;;;;;;;-3.54;100.00;102380.16;4951265;28;20488;-76
2022/03/05 02:00:35;;;;;;;10.60;3.03;;;;;;;-3.49;100.00;102390.34;4945844;28;20041;-77
2022/03/05 02:03:01;;;;;;;12.60;3.30;;;;;;;-3.58;100.00;102378.47;4938087;28;20113;-79
2022/03/05 02:05:27;;;;;;;11.32;3.10;;;;;;;-3.65;100.00;102371.72;4951438;28;20031;-76
2022/03/05 02:07:53;;;;;;;6.75;2.50;;;;;;;-3.65;100.00;102375.13;4966477;28;20039;-77
2022/03/05 02:10:20;;;;;;;8.05;2.67;;;;;;;-3.81;100.00;102359.00;4962411;28;20418;-77
2022/03/05 02:12:46;;;;;;;9.93;3.15;;;;;;;-3.73;100.00;102377.75;4938157;29;20504;-77
2022/03/05 02:15:11;;;;;;;11.55;2.97;;;;;;;-3.80;100.00;102373.56;4932377;28;20078;-77
2022/03/05 02:17:38;;;;;;;9.10;2.90;;;;;;;-3.75;100.00;102378.63;4936457;29;20510;-77
2022/03/05 02:20:05;;;;;;;9.73;3.45;;;;;;;-3.77;100.00;102370.97;4951996;28;20047;-77
2022/03/05 02:22:31;;;;;;;11.05;2.88;;;;;;;-3.77;100.00;102376.09;4915003;28;20066;-77
2022/03/05 02:25:02;;;;;;;7.45;2.70;;;;;;;-3.81;100.00;102363.31;4930466;29;20090;-78
2022/03/05 02:27:28;;;;;;;11.20;2.50;;;;;;;-3.81;100.00;102369.28;4950099;28;20130;-78
2022/03/05 02:29:58;;;;;;;7.40;3.00;;;;;;;-3.93;100.00;102354.00;4963106;28;20042;-78
2022/03/05 02:32:24;;;;;;;10.02;3.30;;;;;;;-3.82;100.00;102364.19;4967101;28;20043;-78
2022/03/05 02:34:50;;;;;;;9.57;2.78;;;;;;;-3.83;100.00;102362.47;4951663;28;20110;-78
2022/03/05 02:37:17;;;;;;;10.93;3.17;;;;;;;-3.89;100.00;102359.97;4934787;29;20058;-79
2022/03/05 02:39:45;;;;;;;10.88;2.72;;;;;;;-3.87;100.00;102360.81;4945843;28;20039;-78
2022/03/05 02:42:13;;;;;;;10.85;3.10;;;;;;;-3.89;100.00;102362.53;4934822;29;20038;-77
2022/03/05 02:44:39;;;;;;;8.30;3.08;;;;;;;-3.88;100.00;102359.97;4948197;28;20474;-78
2022/03/05 02:47:05;;;;;;;8.50;3.03;;;;;;;-3.82;100.00;102367.59;4954565;28;20051;-78
2022/03/05 02:49:31;;;;;;;9.50;2.95;;;;;;;-3.87;100.00;102363.38;4916162;28;20394;-78
2022/03/05 02:51:57;;;;;;;9.52;3.00;;;;;;;-3.89;100.00;102359.97;4953245;28;20107;-78
2022/03/05 02:54:24;;;;;;;11.65;3.38;;;;;;;-3.93;100.00;102364.28;4920790;29;20038;-78
2022/03/05 02:56:50;;;;;;;11.27;3.72;;;;;;;-3.99;100.00;102367.75;4950432;28;20397;-77
2022/03/05 02:59:16;;;;;;;6.90;3.10;;;;;;;-4.00;100.00;102365.19;4954601;28;20509;-79
2022/03/05 03:01:42;;;;;;;12.50;3.63;;;;;;;-3.99;100.00;102367.75;4970840;28;20043;-78
2022/03/05 03:04:07;;;;;;;8.77;3.03;;;;;;;-4.01;100.00;102363.47;4953382;28;20043;-78
2022/03/05 03:06:33;;;;;;;8.50;3.10;;;;;;;-4.01;100.00;102364.34;4955102;28;20043;-79
2022/03/05 03:08:59;;;;;;;11.63;2.60;;;;;;;-4.05;100.00;102367.81;4969431;28;20047;-78
2022/03/05 03:11:25;;;;;;;7.72;3.20;;;;;;;-4.11;100.00;102362.69;4954680;28;20038;-78
2022/03/05 03:13:50;;;;;;;8.00;3.40;;;;;;;-4.14;100.00;102368.72;4954462;28;20039;-79
2022/03/05 03:16:16;;;;;;;13.30;3.70;;;;;;;-4.18;100.00;102364.47;4943547;29;20043;-78
2022/03/05 03:18:42;;;;;;;9.73;3.40;;;;;;;-4.15;100.00;102371.28;4938342;29;20047;-78
2022/03/05 03:21:08;;;;;;;14.38;3.47;;;;;;;-4.12;100.00;102374.69;4957223;28;20035;-78
2022/03/05 03:23:34;;;;;;;11.27;3.80;;;;;;;-4.11;100.00;102376.38;4953131;29;20448;-78
2022/03/05 03:26:00;;;;;;;12.23;4.65;;;;;;;-4.19;100.00;102361.94;4964070;28;20039;-78
2022/03/05 03:28:26;;;;;;;8.45;3.63;;;;;;;-4.14;100.00;102373.00;4939151;29;20505;-78
2022/03/05 03:30:52;;;;;;;9.05;3.67;;;;;;;-4.20;100.00;102366.22;4941987;29;20054;-78
2022/03/05 03:33:18;;;;;;;9.07;4.03;;;;;;;-4.20;100.00;102367.91;4969084;28;20081;-77
2022/03/05 03:35:43;;;;;;;13.48;4.07;;;;;;;-4.19;100.00;102380.72;4970205;28;20078;-77
2022/03/05 03:38:09;;;;;;;12.32;3.83;;;;;;;-4.21;100.00;102376.47;4942090;29;20417;-78
2022/03/05 03:40:34;;;;;;;10.18;4.13;;;;;;;-4.23;100.00;102378.19;4923045;29;20094;-79
2022/03/05 03:43:00;;;;;;;11.55;3.67;;;;;;;-4.25;100.00;102365.38;4932567;29;20239;-78
2022/03/05 03:45:25;;;;;;;7.05;3.30;;;;;;;-4.29;100.00;102363.72;4956864;28;20031;-78
2022/03/05 03:47:52;;;;;;;12.35;3.80;;;;;;;-4.26;100.00;102379.03;4937821;29;20050;-78
2022/03/05 03:50:20;;;;;;;7.43;3.88;;;;;;;-4.28;100.00;102369.69;4958619;28;20132;-78
2022/03/05 03:52:46;;;;;;;9.50;3.35;;;;;;;-4.30;100.00;102365.41;4964724;28;20110;-79
2022/03/05 03:55:16;;;;;;;8.82;3.58;;;;;;;-4.31;100.00;102370.56;4950472;29;20087;-78
2022/03/05 03:57:42;;;;;;;10.05;3.85;;;;;;;-4.34;100.00;102370.56;4953102;28;20040;-78
2022/03/05 04:00:12;;;;;;;11.63;3.90;;;;;;;-4.43;100.00;102374.03;4943031;28;20523;-77
2022/03/05 04:02:37;;;;;;;11.50;3.60;;;;;;;-4.57;100.00;102350.25;4967390;28;20041;-80
2022/03/05 04:05:04;;;;;;;12.98;4.40;;;;;;;-4.50;100.00;102367.28;4972840;28;20038;-79
2022/03/05 04:10:33;;;;;;;7.15;3.63;;;;;;;-4.47;100.00;102374.94;4973301;28;20072;-78
2022/03/05 04:12:59;;;;;;;14.52;4.15;;;;;;;-4.47;100.00;102372.38;4949773;28;20050;-79
2022/03/05 04:15:24;;;;;;;9.18;3.83;;;;;;;-4.51;100.00;102375.81;4978940;28;20047;-78
2022/03/05 04:17:50;;;;;;;9.57;3.95;;;;;;;-4.44;100.00;102381.75;4953757;29;20031;-77
2022/03/05 04:20:16;;;;;;;9.75;3.78;;;;;;;-4.45;100.00;102374.91;4925134;28;20464;-77
2022/03/05 04:22:42;;;;;;;10.18;4.10;;;;;;;-4.41;100.00;102387.69;4944290;29;20089;-77
2022/03/05 04:25:08;;;;;;;11.10;3.53;;;;;;;-4.44;100.00;102380.03;4937192;29;20031;-79
2022/03/05 04:27:34;;;;;;;9.43;3.67;;;;;;;-4.43;100.00;102384.28;4937940;29;20131;-78
2022/03/05 04:29:59;;;;;;;13.57;3.80;;;;;;;-4.44;100.00;102380.03;4917639;29;20138;-78
2022/03/05 04:32:25;;;;;;;10.57;4.10;;;;;;;-4.50;100.00;102378.38;4937630;29;20039;-78
2022/03/05 04:34:51;;;;;;;11.65;3.60;;;;;;;-4.58;100.00;102369.84;4941625;29;20075;-78
2022/03/05 04:37:16;;;;;;;8.13;3.47;;;;;;;-4.68;100.00;102359.72;4952188;29;20397;-78
2022/03/05 04:39:42;;;;;;;9.70;3.60;;;;;;;-4.53;100.00;102377.53;4954657;28;20401;-78
2022/03/05 04:42:08;;;;;;;10.30;3.72;;;;;;;-4.59;100.00;102375.03;4943592;29;20518;-78
2022/03/05 04:44:34;;;;;;;11.70;3.75;;;;;;;-4.62;100.00;102375.88;4940452;29;20071;-78
2022/03/05 04:46:59;;;;;;;8.82;3.45;;;;;;;-4.59;100.00;102375.03;4969934;28;20043;-78
2022/03/05 04:49:25;;;;;;;7.60;3.88;;;;;;;-4.59;100.00;102363.06;4953733;28;20035;-79
2022/03/05 04:51:51;;;;;;;8.10;3.30;;;;;;;-4.57;100.00;102380.97;4945143;29;20075;-78
2022/03/05 04:54:17;;;;;;;6.97;3.67;;;;;;;-4.60;100.00;102383.53;4958306;28;20038;-79
2022/03/05 04:56:42;;;;;;;8.45;3.70;;;;;;;-4.62;100.00;102386.13;4945115;29;20049;-79
2022/03/05 04:59:08;;;;;;;8.30;3.70;;;;;;;-4.65;100.00;102378.47;4961226;28;20808;-78
2022/03/05 05:01:34;;;;;;;10.65;4.05;;;;;;;-4.64;100.00;102382.72;4953521;28;20058;-79
2022/03/05 05:04:00;;;;;;;8.48;3.40;;;;;;;-4.65;100.00;102375.03;4937619;29;20048;-78
2022/03/05 05:06:26;;;;;;;11.57;3.60;;;;;;;-4.67;100.00;102382.75;4939966;29;20035;-78
2022/03/05 05:08:52;;;;;;;7.78;3.78;;;;;;;-4.68;100.00;102373.34;4924746;29;20086;-78
2022/03/05 05:11:17;;;;;;;13.82;4.32;;;;;;;-4.65;100.00;102377.59;4953277;28;20042;-78
2022/03/05 05:13:43;;;;;;;9.32;3.90;;;;;;;-4.63;100.00;102383.56;4956471;28;20035;-78
2022/03/05 05:16:09;;;;;;;10.90;3.90;;;;;;;-4.62;100.00;102382.72;4950513;29;20382;-78
2022/03/05 05:18:34;;;;;;;10.55;3.92;;;;;;;-4.64;100.00;102392.13;4945777;28;20042;-78
2022/03/05 05:21:01;;;;;;;10.80;4.30;;;;;;;-4.63;100.00;102392.09;4968857;28;20105;-79
2022/03/05 05:23:27;;;;;;;12.40;4.47;;;;;;;-4.66;100.00;102387.00;4951805;28;20115;-80
2022/03/05 05:25:52;;;;;;;13.38;4.43;;;;;;;-4.65;100.00;102387.84;4947596;28;20167;-78
2022/03/05 05:28:18;;;;;;;8.50;3.70;;;;;;;-4.72;100.00;102379.34;4969781;28;20046;-78
2022/03/05 05:30:43;;;;;;;11.43;3.95;;;;;;;-4.70;100.00;102396.41;4969003;28;20493;-78
2022/03/05 05:33:09;;;;;;;12.20;4.53;;;;;;;-4.72;100.00;102395.56;4960739;28;20038;-79
2022/03/05 05:35:34;;;;;;;9.65;4.20;;;;;;;-4.70;100.00;102398.13;4968737;28;20114;-78
2022/03/05 05:38:00;;;;;;;13.23;4.13;;;;;;;-4.74;100.00;102392.16;4937645;29;20058;-80
2022/03/05 05:40:27;;;;;;;10.57;4.40;;;;;;;-4.71;100.00;102398.97;4970147;28;20035;-78
2022/03/05 05:42:53;;;;;;;14.90;4.90;;;;;;;-4.73;100.00;102400.69;4928002;29;20038;-78
2022/03/05 05:45:19;;;;;;;11.00;4.45;;;;;;;-4.70;100.00;102405.78;4938243;29;20090;-78
2022/03/05 05:47:44;;;;;;;12.60;4.78;;;;;;;-4.72;100.00;102395.56;4926177;29;20043;-78
2022/03/05 05:50:10;;;;;;;13.50;4.80;;;;;;;-4.64;100.00;102410.88;4955800;28;20027;-79
2022/03/05 05:52:37;;;;;;;14.90;4.28;;;;;;;-4.64;100.00;102404.91;4943979;29;20039;-79
2022/03/05 05:55:03;;;;;;;10.10;4.07;;;;;;;-4.62;100.00;102410.88;4969342;28;20046;-80
2022/03/05 05:57:29;;;;;;;13.57;4.32;;;;;;;-4.65;100.00;102406.63;4938611;29;20046;-79
2022/03/05 05:59:54;;;;;;;12.00;4.60;;;;;;;-4.68;100.00;102404.09;4934010;29;20116;-79
2022/03/05 06:02:21;;;;;;;13.05;5.38;;;;;;;-4.65;100.00;102408.31;4946194;29;20461;-77
2022/03/05 06:04:47;;;;;;;17.23;4.90;;;;;;;-4.58;100.00;102427.91;4961138;28;20068;-78
2022/03/05 06:07:12;;;;;;;14.40;5.35;;;;;;;-4.51;100.00;102419.34;4950695;28;20044;-78
2022/03/05 06:09:38;;;;;;;13.45;5.13;;;;;;;-4.57;100.00;102412.56;4969162;28;20027;-78
2022/03/05 06:12:04;;;;;;;13.27;5.20;;;;;;;-4.54;100.00;102425.34;4943761;28;20043;-78
2022/03/05 06:14:30;;;;;;;16.63;4.95;;;;;;;-4.53;100.00;102427.03;4951992;29;20035;-79
2022/03/05 06:16:55;;;;;;;12.07;5.93;;;;;;;-4.55;100.00;102420.22;4951861;28;20039;-79
2022/03/05 06:19:21;;;;;;;12.15;5.43;;;;;;;-4.45;100.00;102427.00;4953434;28;20043;-78
2022/03/05 06:21:47;;;;;;;15.13;5.28;;;;;;;-4.36;100.00;102426.09;4955759;28;20058;-79
2022/03/05 06:24:13;;;;;;;9.35;4.63;;;;;;;-4.23;100.00;102443.09;4950934;29;20062;-79
2022/03/05 06:26:38;;;;;;;16.17;5.78;;;;;;;-4.15;100.00;102440.47;4952209;28;20039;-79
2022/03/05 06:29:04;;;;;;;11.75;5.57;;;;;;;-3.97;100.00;102444.63;4912725;29;20047;-79
2022/03/05 06:31:30;;;;;;;11.23;5.00;;;;;;;-3.83;100.00;102441.97;4950776;28;20054;-79
2022/03/05 06:33:56;;;;;;;13.00;4.68;;;;;;;-3.72;100.00;102435.88;4952384;29;20043;-79
2022/03/05 06:36:22;;;;;;;11.98;5.18;;;;;;;-3.56;100.00;102441.72;4939966;29;20118;-79
2022/03/05 06:38:48;;;;;;;12.05;5.53;;;;;;;-3.40;100.00;102444.13;4954938;29;20055;-79
2022/03/05 06:41:13;;;;;;;15.20;5.38;;;;;;;-3.28;100.00;102446.56;4956271;28;20082;-79
2022/03/05 06:43:39;;;;;;;14.00;5.30;;;;;;;-3.16;100.00;102436.19;4973647;28;20031;-80
2022/03/05 06:46:04;;;;;;;13.25;5.28;;;;;;;-2.90;100.00;102437.63;4974257;28;20039;-79
2022/03/05 06:48:30;;;;;;;9.93;5.30;;;;;;;-2.75;100.00;102436.56;4976099;28;20035;-78
2022/03/05 06:50:55;;;;;;;12.13;5.70;;;;;;;-2.66;100.00;102438.16;4966055;28;20043;-78
2022/03/05 06:53:21;;;;;;;12.40;5.00;;;;;;;-2.54;100.00;102440.59;4960028;29;20039;-79
2022/03/05 06:55:46;;;;;;;14.30;5.35;;;;;;;-2.43;100.00;102433.56;4969119;28;20062;-79
2022/03/05 06:58:14;;;;;;;15.60;5.50;;;;;;;-2.29;100.00;102446.22;4936379;29;20031;-78
2022/03/05 07:00:40;;;;;;;9.77;4.75;;;;;;;-2.15;100.00;102438.28;4957593;28;20031;-80
2022/03/05 07:03:05;;;;;;;10.35;4.70;;;;;;;-2.09;100.00;102440.81;4940396;29;20552;-80
2022/03/05 07:05:31;;;;;;;13.43;5.07;;;;;;;-2.07;100.00;102428.75;4971599;28;20027;-80
2022/03/05 07:07:56;;;;;;;9.20;4.78;;;;;;;-1.88;100.00;102446.47;4940763;29;20126;-78
2022/03/05 07:10:22;;;;;;;13.00;5.10;;;;;;;-1.84;100.00;102438.69;4964624;28;20035;-78
2022/03/05 07:12:47;;;;;;;13.05;5.13;;;;;;;-1.70;100.00;102447.88;4936050;29;20462;-79
2022/03/05 07:15:13;;;;;;;10.00;5.07;;;;;;;-1.70;100.00;102435.88;4972213;28;20745;-79
2022/03/05 07:17:47;;;;;;;11.50;4.30;;;;;;;-1.52;100.00;102447.56;4972063;28;20078;-79
2022/03/05 07:20:12;;;;;;;11.07;4.82;;;;;;;-1.47;100.00;102443.22;4955623;29;20067;-79
2022/03/05 07:22:38;;;;;;;7.93;4.55;;;;;;;-1.42;100.00;102448.25;4947105;29;20059;-79
2022/03/05 07:25:04;;;;;;;13.18;5.00;;;;;;;-1.38;100.00;102443.00;4937851;28;20418;-78
2022/03/05 07:27:30;;;;;;;13.85;4.75;;;;;;;-1.28;100.00;102448.00;4971248;28;20043;-78
2022/03/05 07:29:55;;;;;;;14.43;5.05;;;;;;;-1.17;100.00;102458.94;4938534;29;20031;-78
2022/03/05 07:32:21;;;;;;;12.88;5.10;;;;;;;-1.12;100.00;102441.69;4938167;29;20035;-79
2022/03/05 07:34:46;;;;;;;13.45;5.13;;;;;;;-0.96;100.00;102455.13;4936600;29;20031;-80
2022/03/05 07:37:12;;;;;;;11.77;4.65;;;;;;;-0.84;100.00;102465.19;4937624;29;20058;-79
2022/03/05 07:39:38;;;;;;;12.48;5.22;;;;;;;-0.75;100.00;102461.59;4953745;28;20031;-78
2022/03/05 07:42:04;;;;;;;9.75;4.75;;;;;;;-0.57;100.00;102467.22;4969281;28;20045;-77
2022/03/05 07:44:30;;;;;;;10.60;4.68;;;;;;;-0.49;100.00;102473.94;4953007;28;20039;-79
2022/03/05 07:46:56;;;;;;;11.35;4.78;;;;;;;-0.52;100.00;102468.00;4937629;29;20063;-79
2022/03/05 07:49:22;;;;;;;15.93;4.35;;;;;;;-0.51;100.00;102465.38;4954257;28;20071;-80
2022/03/05 07:51:47;;;;;;;13.63;4.38;;;;;;;-0.55;100.00;102463.72;4959334;28;20046;-79
2022/03/05 07:54:14;;;;;;;11.25;4.32;;;;;;;-0.45;100.00;102470.41;4952875;29;20514;-78
2022/03/05 07:56:40;;;;;;;10.70;4.70;;;;;;;-0.40;100.00;102463.41;4952746;29;20039;-78
2022/03/05 07:59:06;;;;;;;9.23;4.53;;;;;;;-0.33;100.00;102464.13;4970600;28;20520;-77
2022/03/05 08:01:31;;;;;;;11.70;4.47;;;;;;;-0.25;100.00;102471.69;4921187;29;20405;-77
2022/03/05 08:03:57;;;;;;;10.10;4.70;;;;;;;-0.23;100.00;102469.91;4968636;28;20050;-79
2022/03/05 08:06:22;;;;;;;9.63;4.32;;;;;;;-0.18;100.00;102475.81;4952271;29;20049;-79
2022/03/05 08:08:48;;;;;;;11.65;4.22;;;;;;;-0.12;100.00;102469.69;4954798;28;20069;-77
2022/03/05 08:11:14;;;;;;;13.80;5.03;;;;;;;-0.04;100.00;102475.50;4936490;29;20421;-78
2022/03/05 08:13:39;;;;;;;11.65;5.03;;;;;;;0.03;100.00;102471.91;4953148;28;20157;-78
2022/03/05 08:16:05;;;;;;;18.45;5.20;;;;;;;0.06;100.00;102470.97;4954838;28;20121;-77
2022/03/05 08:18:30;;;;;;;12.27;4.85;;;;;;;0.18;100.00;102475.84;4963106;28;20123;-79
2022/03/05 08:20:56;;;;;;;14.15;5.00;;;;;;;0.17;100.00;102479.31;4973146;28;20049;-78
2022/03/05 08:23:21;;;;;;;11.68;4.50;;;;;;;0.23;100.00;102486.91;4949611;29;20527;-78
2022/03/05 08:25:47;;;;;;;15.10;4.60;;;;;;;0.28;100.00;102473.88;4937099;28;20038;-78
2022/03/05 08:28:12;;;;;;;10.10;4.18;;;;;;;0.43;100.00;102488.16;4967667;28;20043;-77
2022/03/05 08:30:40;;;;;;;16.20;4.55;;;;;;;0.48;100.00;102492.31;4975685;28;20503;-79
2022/03/05 08:33:05;;;;;;;10.65;4.38;;;;;;;0.52;100.00;102493.94;4951809;29;20146;-80
2022/03/05 08:35:31;;;;;;;9.05;4.28;;;;;;;0.67;100.00;102494.44;4921513;29;20118;-77
2022/03/05 08:37:57;;;;;;;16.27;4.32;;;;;;;0.74;100.00;102490.81;4952849;28;20062;-78
2022/03/05 08:40:22;;;;;;;10.82;3.83;;;;;;;0.83;100.00;102490.56;4952342;29;20409;-79
2022/03/05 08:42:49;;;;;;;9.45;4.20;;;;;;;1.02;100.00;102490.94;4951680;28;20055;-77
2022/03/05 08:45:16;;;;;;;12.43;4.00;;;;;;;1.13;100.00;102493.19;4966807;28;20486;-78
2022/03/05 08:47:42;;;;;;;9.63;4.38;;;;;;;1.03;100.00;102491.75;4959160;28;20047;-79
2022/03/05 08:50:07;;;;;;;12.40;4.18;;;;;;;1.01;100.00;102491.81;4957416;28;20037;-78
2022/03/05 08:52:36;;;;;;;14.23;4.80;;;;;;;0.94;100.00;102478.22;4957928;28;20178;-77
2022/03/05 08:55:12;;;;;;;10.23;4.47;;;;;;;1.00;100.00;102494.41;4957972;28;20130;-78
2022/03/05 08:57:39;;;;;;;11.27;4.05;;;;;;;1.16;100.00;102488.78;4935617;29;20035;-78
2022/03/05 09:00:08;;;;;;;12.95;5.20;;;;;;;1.31;100.00;102486.66;4967875;28;20066;-78
2022/03/05 09:02:34;;;;;;;9.90;4.78;;;;;;;1.41;100.00;102485.50;4951331;28;20042;-77
2022/03/05 09:05:00;;;;;;;14.00;5.95;;;;;;;1.46;100.00;102491.41;4935656;29;20097;-77
2022/03/05 09:07:27;;;;;;;11.88;5.35;;;;;;;1.40;100.00;102486.41;4951112;28;20513;-79
2022/03/05 09:09:53;;;;;;;12.00;5.25;;;;;;;1.47;100.00;102481.88;4971250;28;20047;-77
2022/03/05 09:12:19;;;;;;;11.43;5.13;;;;;;;1.67;100.00;102491.66;4933804;29;20521;-78
2022/03/05 09:14:46;;;;;;;11.77;4.88;;;;;;;1.87;100.00;102486.72;4938420;29;20437;-77
2022/03/05 09:17:13;;;;;;;16.27;5.60;;;;;;;1.87;100.00;102478.97;4918064;29;20040;-77
2022/03/05 09:19:38;;;;;;;12.00;5.85;;;;;;;1.87;100.00;102484.13;4951569;28;20062;-78
2022/03/05 09:22:07;;;;;;;12.85;6.00;;;;;;;1.95;100.00;102481.31;4957685;28;20047;-78
2022/03/05 09:24:33;;;;;;;14.15;6.20;;;;;;;2.13;100.00;102483.31;4969199;28;20062;-81
2022/03/05 09:26:58;;;;;;;15.57;6.28;;;;;;;2.05;100.00;102477.53;4935166;29;20443;-78
2022/03/05 09:29:25;;;;;;;12.50;5.70;;;;;;;2.18;100.00;102471.97;4950465;29;20490;-79
2022/03/05 09:31:51;;;;;;;13.55;5.70;;;;;;;2.22;100.00;102478.72;4916078;29;20035;-78
2022/03/05 09:34:16;;;;;;;13.52;6.00;;;;;;;2.16;100.00;102464.25;4962693;28;20668;-78
2022/03/05 09:36:42;;;;;;;16.73;6.28;;;;;;;2.22;100.00;102463.19;4942575;29;20035;-78
2022/03/05 09:39:08;;;;;;;19.45;6.70;;;;;;;2.28;99.19;102470.75;4935175;28;20042;-79
2022/03/05 09:41:33;;;;;;;14.27;6.57;;;;;;;2.26;97.85;102462.19;4931778;29;20059;-79
2022/03/05 09:43:59;;;;;;;19.08;7.75;;;;;;;2.37;98.72;102470.44;4940558;29;20077;-79
2022/03/05 09:46:26;;;;;;;16.23;7.50;;;;;;;2.46;97.89;102444.25;4919103;29;20402;-79
2022/03/05 09:48:53;;;;;;;15.77;7.28;;;;;;;2.64;96.67;102466.09;4951049;29;20077;-78
2022/03/05 09:51:21;;;;;;;18.83;7.05;;;;;;;2.66;94.93;102466.88;4934731;29;20053;-77
2022/03/05 09:53:47;;;;;;;17.08;7.65;;;;;;;2.47;94.25;102458.91;4960592;28;20026;-78
2022/03/05 09:56:13;;;;;;;16.42;7.47;;;;;;;2.54;94.65;102456.94;4934667;29;20034;-79
2022/03/05 09:58:39;;;;;;;13.85;6.32;;;;;;;2.79;94.88;102466.44;4964922;28;20086;-79
2022/03/05 10:01:05;;;;;;;16.75;7.28;;;;;;;2.73;93.10;102463.19;4956549;28;20045;-79
2022/03/05 10:03:42;;;;;;;17.92;7.03;;;;;;;2.76;93.77;102458.81;4946693;28;20040;-78
2022/03/05 10:06:22;;;;;;;14.25;7.60;;;;;;;3.01;93.19;102466.53;4944645;29;20046;-79
2022/03/05 10:08:51;;;;;;;13.85;6.68;;;;;;;3.07;91.80;102468.91;4937799;29;20675;-78
2022/03/05 10:11:21;;;;;;;12.80;6.93;;;;;;;3.01;92.09;102463.94;4971476;28;20840;-79
2022/03/05 10:13:47;;;;;;;12.90;6.82;;;;;;;3.01;89.77;102466.53;4949377;28;20433;-80
2022/03/05 10:16:32;;;;;;;12.98;6.93;;;;;;;3.25;89.44;102470.00;4955129;28;20046;-80
2022/03/05 10:19:15;;;;;;;12.77;7.00;;;;;;;3.30;88.02;102474.09;4954975;28;20043;-78
2022/03/05 10:21:54;;;;;;;;;;;;;;;3.21;85.33;102468.41;4949261;28;20055;-78
2022/03/05 10:24:30;;;;;;;12.18;6.75;;;;;;;3.43;86.66;102458.94;4973012;28;19922;-80
2022/03/05 10:26:56;;;;;;;12.85;6.88;;;;;;;3.34;80.69;102461.88;4939111;29;20050;-79
2022/03/05 10:29:25;;;;;;;18.58;8.35;;;;;;;3.57;84.90;102468.78;4954332;29;20043;-78
2022/03/05 10:32:19;;;;;;;13.73;6.78;;;;;;;3.56;79.00;102461.03;4941524;29;20044;-78
2022/03/05 10:34:45;;;;;;;14.05;7.32;;;;;;;3.67;80.67;102462.34;4950280;29;20046;-79
2022/03/05 10:37:11;;;;;;;13.15;7.38;;;;;;;3.71;80.98;102460.44;4936139;29;20065;-79
2022/03/05 10:39:37;;;;;;;15.23;7.85;;;;;;;3.81;80.68;102451.41;4959313;28;20043;-79
2022/03/05 10:42:15;;;;;;;14.88;7.53;;;;;;;3.94;80.54;102456.09;4943982;29;20040;-78
2022/03/05 10:44:41;;;;;;;17.20;8.40;;;;;;;4.05;81.71;102435.72;4969589;28;20038;-79
2022/03/05 10:47:07;;;;;;;16.27;7.40;;;;;;;4.25;79.52;102451.34;4951725;28;20035;-81
2022/03/05 10:49:38;;;;;;;15.23;7.22;;;;;;;4.43;79.22;102457.53;4960371;28;20035;-80
2022/03/05 10:52:07;;;;;;;11.90;7.25;;;;;;;4.60;79.14;102453.41;4973225;28;20039;-79
2022/03/05 10:54:40;;;;;;;20.60;8.88;;;;;;;4.49;78.18;102453.84;4954372;28;20047;-78
2022/03/05 10:57:16;;;;;;;18.30;6.95;;;;;;;4.37;78.20;102463.00;4955814;28;20039;-80
2022/03/05 10:59:47;;;;;;;18.50;7.35;;;;;;;4.28;78.09;102453.81;4954520;28;20038;-78
2022/03/05 11:02:15;;;;;;;14.27;7.25;;;;;;;4.26;77.66;102445.25;4954135;28;20090;-78
2022/03/05 11:04:44;;;;;;;14.60;7.30;;;;;;;4.36;78.59;102444.88;4955789;28;20036;-77
2022/03/05 11:07:12;;;;;;;12.88;6.50;;;;;;;4.52;77.07;102440.72;4952832;29;20617;-78
2022/03/05 11:09:39;;;;;;;13.38;6.93;;;;;;;4.53;75.57;102428.56;4953578;28;20036;-76
2022/03/05 11:12:09;;;;;;;13.15;7.07;;;;;;;4.70;74.68;102436.47;4956490;28;20043;-77
2022/03/05 11:14:38;;;;;;;14.50;7.13;;;;;;;4.87;75.88;102436.56;4956419;29;20070;-78